sensor_id;sensor_type;location;lat;lon;timestamp;temperature;humidity
21169;DHT22;10742;51.816;8.662;2023-01-10T00:02:34;10.70;95.20
21169;DHT22;10742;51.816;8.662;2023-01-10T00:05:55;10.60;95.10
21169;DHT22;10742;51.816;8.662;2023-01-10T00:09:17;10.60;95.10
21169;DHT22;10742;51.816;8.662;2023-01-10T00:12:38;10.60;95.10
21169;DHT22;10742;51.816;8.662;2023-01-10T00:16:18;10.60;95.10
21169;DHT22;10742;51.816;8.662;2023-01-10T00:19:39;10.50;95.00
21169;DHT22;10742;51.816;8.662;2023-01-10T00:23:00;10.50;95.00
21169;DHT22;10742;51.816;8.662;2023-01-10T00:26:23;10.40;95.00
21169;DHT22;10742;51.816;8.662;2023-01-10T00:29:45;10.40;95.00
21169;DHT22;10742;51.816;8.662;2023-01-10T00:33:08;10.40;95.10
21169;DHT22;10742;51.816;8.662;2023-01-10T00:36:30;10.30;95.10
21169;DHT22;10742;51.816;8.662;2023-01-10T00:39:52;10.40;95.20
21169;DHT22;10742;51.816;8.662;2023-01-10T00:43:13;10.30;95.10
21169;DHT22;10742;51.816;8.662;2023-01-10T00:46:53;10.30;95.10
21169;DHT22;10742;51.816;8.662;2023-01-10T00:50:14;10.30;95.20
21169;DHT22;10742;51.816;8.662;2023-01-10T00:53:36;10.30;95.20
21169;DHT22;10742;51.816;8.662;2023-01-10T00:56:39;10.20;95.30
21169;DHT22;10742;51.816;8.662;2023-01-10T00:59:41;10.20;95.80
21169;DHT22;10742;51.816;8.662;2023-01-10T01:02:44;10.20;95.50
21169;DHT22;10742;51.816;8.662;2023-01-10T01:05:47;10.20;95.50
21169;DHT22;10742;51.816;8.662;2023-01-10T01:08:50;10.20;95.60
21169;DHT22;10742;51.816;8.662;2023-01-10T01:11:52;10.30;95.70
21169;DHT22;10742;51.816;8.662;2023-01-10T01:14:55;10.30;95.80
21169;DHT22;10742;51.816;8.662;2023-01-10T01:17:57;10.30;95.80
21169;DHT22;10742;51.816;8.662;2023-01-10T01:21:00;10.30;95.90
21169;DHT22;10742;51.816;8.662;2023-01-10T01:24:04;10.30;96.00
21169;DHT22;10742;51.816;8.662;2023-01-10T01:27:07;10.30;96.10
21169;DHT22;10742;51.816;8.662;2023-01-10T01:30:11;10.30;96.10
21169;DHT22;10742;51.816;8.662;2023-01-10T01:33:14;10.40;96.20
21169;DHT22;10742;51.816;8.662;2023-01-10T01:36:16;10.40;96.20
21169;DHT22;10742;51.816;8.662;2023-01-10T01:39:19;10.40;96.20
21169;DHT22;10742;51.816;8.662;2023-01-10T01:42:28;10.50;96.30
21169;DHT22;10742;51.816;8.662;2023-01-10T01:45:35;10.50;96.30
21169;DHT22;10742;51.816;8.662;2023-01-10T01:48:41;10.50;96.30
21169;DHT22;10742;51.816;8.662;2023-01-10T01:51:46;10.50;96.30
21169;DHT22;10742;51.816;8.662;2023-01-10T01:54:52;10.50;96.30
21169;DHT22;10742;51.816;8.662;2023-01-10T01:57:57;10.50;96.30
21169;DHT22;10742;51.816;8.662;2023-01-10T02:00:59;10.50;96.30
21169;DHT22;10742;51.816;8.662;2023-01-10T02:04:09;10.60;96.30
21169;DHT22;10742;51.816;8.662;2023-01-10T02:07:13;10.60;96.40
21169;DHT22;10742;51.816;8.662;2023-01-10T02:13:51;10.60;96.40
21169;DHT22;10742;51.816;8.662;2023-01-10T02:16:54;10.60;96.20
21169;DHT22;10742;51.816;8.662;2023-01-10T02:23:18;10.60;96.10
21169;DHT22;10742;51.816;8.662;2023-01-10T02:33:29;10.60;96.00
21169;DHT22;10742;51.816;8.662;2023-01-10T02:43:49;10.60;96.00
21169;DHT22;10742;51.816;8.662;2023-01-10T02:46:55;10.50;96.00
21169;DHT22;10742;51.816;8.662;2023-01-10T02:53:32;10.50;96.00
21169;DHT22;10742;51.816;8.662;2023-01-10T02:57:01;10.50;95.90
21169;DHT22;10742;51.816;8.662;2023-01-10T03:06:58;10.50;95.90
21169;DHT22;10742;51.816;8.662;2023-01-10T03:10:15;10.50;95.90
21169;DHT22;10742;51.816;8.662;2023-01-10T03:16:38;10.50;95.90
21169;DHT22;10742;51.816;8.662;2023-01-10T03:19:47;10.50;95.90
21169;DHT22;10742;51.816;8.662;2023-01-10T03:22:54;10.50;95.90
21169;DHT22;10742;51.816;8.662;2023-01-10T03:25:57;10.50;95.90
21169;DHT22;10742;51.816;8.662;2023-01-10T03:29:05;10.50;95.90
21169;DHT22;10742;51.816;8.662;2023-01-10T03:32:11;10.50;95.90
21169;DHT22;10742;51.816;8.662;2023-01-10T03:35:15;10.50;95.90
21169;DHT22;10742;51.816;8.662;2023-01-10T03:42:10;10.50;95.90
21169;DHT22;10742;51.816;8.662;2023-01-10T03:45:20;10.50;96.00
21169;DHT22;10742;51.816;8.662;2023-01-10T03:48:31;10.50;95.90
21169;DHT22;10742;51.816;8.662;2023-01-10T03:51:35;10.50;95.90
21169;DHT22;10742;51.816;8.662;2023-01-10T03:54:44;10.50;95.80
21169;DHT22;10742;51.816;8.662;2023-01-10T03:57:46;10.50;95.80
21169;DHT22;10742;51.816;8.662;2023-01-10T04:00:50;10.50;95.80
21169;DHT22;10742;51.816;8.662;2023-01-10T04:03:52;10.60;95.80
21169;DHT22;10742;51.816;8.662;2023-01-10T04:06:55;10.50;95.80
21169;DHT22;10742;51.816;8.662;2023-01-10T04:09:57;10.50;95.80
21169;DHT22;10742;51.816;8.662;2023-01-10T04:13:00;10.50;95.70
21169;DHT22;10742;51.816;8.662;2023-01-10T04:16:04;10.50;95.70
21169;DHT22;10742;51.816;8.662;2023-01-10T04:19:07;10.50;95.70
21169;DHT22;10742;51.816;8.662;2023-01-10T04:22:10;10.50;95.80
21169;DHT22;10742;51.816;8.662;2023-01-10T04:25:12;10.40;95.80
21169;DHT22;10742;51.816;8.662;2023-01-10T04:28:15;10.40;95.80
21169;DHT22;10742;51.816;8.662;2023-01-10T04:31:17;10.40;95.80
21169;DHT22;10742;51.816;8.662;2023-01-10T04:34:20;10.40;95.80
21169;DHT22;10742;51.816;8.662;2023-01-10T04:37:22;10.40;96.20
21169;DHT22;10742;51.816;8.662;2023-01-10T04:40:25;10.40;95.80
21169;DHT22;10742;51.816;8.662;2023-01-10T04:43:27;10.40;95.80
21169;DHT22;10742;51.816;8.662;2023-01-10T04:46:30;10.40;95.80
21169;DHT22;10742;51.816;8.662;2023-01-10T04:49:33;10.40;95.80
21169;DHT22;10742;51.816;8.662;2023-01-10T04:52:35;10.40;95.80
21169;DHT22;10742;51.816;8.662;2023-01-10T04:55:38;10.40;95.80
21169;DHT22;10742;51.816;8.662;2023-01-10T04:58:40;10.40;95.80
21169;DHT22;10742;51.816;8.662;2023-01-10T05:01:43;10.40;95.80
21169;DHT22;10742;51.816;8.662;2023-01-10T05:04:46;10.40;95.80
21169;DHT22;10742;51.816;8.662;2023-01-10T05:07:48;10.40;95.80
21169;DHT22;10742;51.816;8.662;2023-01-10T05:10:51;10.40;95.80
21169;DHT22;10742;51.816;8.662;2023-01-10T05:13:53;10.40;95.80
21169;DHT22;10742;51.816;8.662;2023-01-10T05:16:56;10.40;95.80
21169;DHT22;10742;51.816;8.662;2023-01-10T05:19:59;10.40;95.70
21169;DHT22;10742;51.816;8.662;2023-01-10T05:23:01;10.40;95.70
21169;DHT22;10742;51.816;8.662;2023-01-10T05:26:06;10.40;95.70
21169;DHT22;10742;51.816;8.662;2023-01-10T05:29:10;10.40;95.70
21169;DHT22;10742;51.816;8.662;2023-01-10T05:32:12;10.40;95.70
21169;DHT22;10742;51.816;8.662;2023-01-10T05:35:15;10.40;95.70
21169;DHT22;10742;51.816;8.662;2023-01-10T05:38:18;10.40;95.70
21169;DHT22;10742;51.816;8.662;2023-01-10T05:41:21;10.40;95.70
21169;DHT22;10742;51.816;8.662;2023-01-10T05:44:24;10.30;95.60
21169;DHT22;10742;51.816;8.662;2023-01-10T05:47:27;10.40;95.70
21169;DHT22;10742;51.816;8.662;2023-01-10T05:50:30;10.40;95.60
21169;DHT22;10742;51.816;8.662;2023-01-10T05:53:34;10.40;95.60
21169;DHT22;10742;51.816;8.662;2023-01-10T05:56:37;10.30;95.60
21169;DHT22;10742;51.816;8.662;2023-01-10T05:59:40;10.30;95.60
21169;DHT22;10742;51.816;8.662;2023-01-10T06:02:42;10.30;95.60
21169;DHT22;10742;51.816;8.662;2023-01-10T06:05:45;10.30;95.50
21169;DHT22;10742;51.816;8.662;2023-01-10T06:08:49;10.30;95.50
21169;DHT22;10742;51.816;8.662;2023-01-10T06:11:52;10.30;95.70
21169;DHT22;10742;51.816;8.662;2023-01-10T06:14:54;10.30;95.50
21169;DHT22;10742;51.816;8.662;2023-01-10T06:17:57;10.30;95.50
21169;DHT22;10742;51.816;8.662;2023-01-10T06:20:59;10.30;95.50
21169;DHT22;10742;51.816;8.662;2023-01-10T06:24:01;10.30;95.50
21169;DHT22;10742;51.816;8.662;2023-01-10T06:27:04;10.30;95.50
21169;DHT22;10742;51.816;8.662;2023-01-10T06:30:08;10.30;95.50
21169;DHT22;10742;51.816;8.662;2023-01-10T06:33:11;10.30;95.50
21169;DHT22;10742;51.816;8.662;2023-01-10T06:36:14;10.30;95.50
21169;DHT22;10742;51.816;8.662;2023-01-10T06:39:17;10.30;95.60
21169;DHT22;10742;51.816;8.662;2023-01-10T06:42:19;10.30;95.60
21169;DHT22;10742;51.816;8.662;2023-01-10T06:45:22;10.30;95.60
21169;DHT22;10742;51.816;8.662;2023-01-10T06:48:24;10.30;95.60
21169;DHT22;10742;51.816;8.662;2023-01-10T06:51:27;10.30;95.60
21169;DHT22;10742;51.816;8.662;2023-01-10T06:54:29;10.30;95.60
21169;DHT22;10742;51.816;8.662;2023-01-10T06:57:32;10.30;95.60
21169;DHT22;10742;51.816;8.662;2023-01-10T07:00:39;10.30;95.60
21169;DHT22;10742;51.816;8.662;2023-01-10T07:03:42;10.30;95.60
21169;DHT22;10742;51.816;8.662;2023-01-10T07:06:45;10.30;95.60
21169;DHT22;10742;51.816;8.662;2023-01-10T07:09:48;10.30;95.60
21169;DHT22;10742;51.816;8.662;2023-01-10T07:12:50;10.30;95.50
21169;DHT22;10742;51.816;8.662;2023-01-10T07:16:09;10.30;95.50
21169;DHT22;10742;51.816;8.662;2023-01-10T07:19:12;10.30;95.50
21169;DHT22;10742;51.816;8.662;2023-01-10T07:22:15;10.30;95.50
21169;DHT22;10742;51.816;8.662;2023-01-10T07:25:18;10.30;95.40
21169;DHT22;10742;51.816;8.662;2023-01-10T07:28:21;10.30;95.40
21169;DHT22;10742;51.816;8.662;2023-01-10T07:31:24;10.30;95.30
21169;DHT22;10742;51.816;8.662;2023-01-10T07:34:27;10.30;95.30
21169;DHT22;10742;51.816;8.662;2023-01-10T07:37:29;10.30;95.30
21169;DHT22;10742;51.816;8.662;2023-01-10T07:40:32;10.30;95.30
21169;DHT22;10742;51.816;8.662;2023-01-10T07:43:34;10.20;95.30
21169;DHT22;10742;51.816;8.662;2023-01-10T07:46:37;10.20;95.40
21169;DHT22;10742;51.816;8.662;2023-01-10T07:49:39;10.20;95.40
21169;DHT22;10742;51.816;8.662;2023-01-10T07:52:42;10.20;95.80
21169;DHT22;10742;51.816;8.662;2023-01-10T07:55:44;10.20;95.50
21169;DHT22;10742;51.816;8.662;2023-01-10T07:58:47;10.20;95.50
21169;DHT22;10742;51.816;8.662;2023-01-10T08:01:51;10.20;95.50
21169;DHT22;10742;51.816;8.662;2023-01-10T08:04:55;10.20;95.50
21169;DHT22;10742;51.816;8.662;2023-01-10T08:08:06;10.30;95.50
21169;DHT22;10742;51.816;8.662;2023-01-10T08:11:09;10.20;95.50
21169;DHT22;10742;51.816;8.662;2023-01-10T08:14:11;10.30;95.50
21169;DHT22;10742;51.816;8.662;2023-01-10T08:17:14;10.20;95.50
21169;DHT22;10742;51.816;8.662;2023-01-10T08:20:16;10.30;95.50
21169;DHT22;10742;51.816;8.662;2023-01-10T08:23:19;10.20;95.50
21169;DHT22;10742;51.816;8.662;2023-01-10T08:26:22;10.20;95.50
21169;DHT22;10742;51.816;8.662;2023-01-10T08:29:24;10.30;95.60
21169;DHT22;10742;51.816;8.662;2023-01-10T08:32:27;10.30;95.60
21169;DHT22;10742;51.816;8.662;2023-01-10T08:35:30;10.30;95.60
21169;DHT22;10742;51.816;8.662;2023-01-10T08:38:32;10.30;95.60
21169;DHT22;10742;51.816;8.662;2023-01-10T08:41:35;10.30;95.60
21169;DHT22;10742;51.816;8.662;2023-01-10T08:44:40;10.40;95.60
21169;DHT22;10742;51.816;8.662;2023-01-10T08:47:43;10.40;95.60
21169;DHT22;10742;51.816;8.662;2023-01-10T08:50:46;10.40;95.60
21169;DHT22;10742;51.816;8.662;2023-01-10T08:53:48;10.40;95.60
21169;DHT22;10742;51.816;8.662;2023-01-10T08:56:50;10.40;95.60
21169;DHT22;10742;51.816;8.662;2023-01-10T08:59:53;10.40;95.60
21169;DHT22;10742;51.816;8.662;2023-01-10T09:02:56;10.50;95.60
21169;DHT22;10742;51.816;8.662;2023-01-10T09:05:59;10.50;95.50
21169;DHT22;10742;51.816;8.662;2023-01-10T09:09:02;10.60;95.60
21169;DHT22;10742;51.816;8.662;2023-01-10T09:12:05;10.60;95.60
21169;DHT22;10742;51.816;8.662;2023-01-10T09:15:31;10.60;95.50
21169;DHT22;10742;51.816;8.662;2023-01-10T09:18:34;10.60;95.50
21169;DHT22;10742;51.816;8.662;2023-01-10T09:21:37;10.60;95.50
21169;DHT22;10742;51.816;8.662;2023-01-10T09:24:39;10.60;95.50
21169;DHT22;10742;51.816;8.662;2023-01-10T09:27:43;10.70;95.50
21169;DHT22;10742;51.816;8.662;2023-01-10T09:30:46;10.70;95.40
21169;DHT22;10742;51.816;8.662;2023-01-10T09:33:49;10.70;95.50
21169;DHT22;10742;51.816;8.662;2023-01-10T09:36:52;10.80;95.50
21169;DHT22;10742;51.816;8.662;2023-01-10T09:39:55;10.80;95.40
21169;DHT22;10742;51.816;8.662;2023-01-10T09:43:07;10.90;95.40
21169;DHT22;10742;51.816;8.662;2023-01-10T09:46:47;10.90;95.30
21169;DHT22;10742;51.816;8.662;2023-01-10T09:50:05;10.90;95.20
21169;DHT22;10742;51.816;8.662;2023-01-10T09:53:17;10.90;95.20
21169;DHT22;10742;51.816;8.662;2023-01-10T09:56:21;11.00;95.20
21169;DHT22;10742;51.816;8.662;2023-01-10T09:59:27;11.00;95.20
21169;DHT22;10742;51.816;8.662;2023-01-10T10:02:38;11.00;95.20
21169;DHT22;10742;51.816;8.662;2023-01-10T10:05:42;11.00;95.50
21169;DHT22;10742;51.816;8.662;2023-01-10T10:08:46;11.00;95.20
21169;DHT22;10742;51.816;8.662;2023-01-10T10:34:42;11.20;95.10
21169;DHT22;10742;51.816;8.662;2023-01-10T10:37:51;11.20;95.10
21169;DHT22;10742;51.816;8.662;2023-01-10T10:40:57;11.30;95.10
21169;DHT22;10742;51.816;8.662;2023-01-10T10:47:32;11.40;95.00
21169;DHT22;10742;51.816;8.662;2023-01-10T10:50:50;11.50;95.10
21169;DHT22;10742;51.816;8.662;2023-01-10T10:53:56;11.50;94.90
21169;DHT22;10742;51.816;8.662;2023-01-10T10:56:59;11.60;95.00
21169;DHT22;10742;51.816;8.662;2023-01-10T11:00:03;11.60;94.90
21169;DHT22;10742;51.816;8.662;2023-01-10T11:06:26;11.60;94.80
21169;DHT22;10742;51.816;8.662;2023-01-10T11:09:30;11.70;94.80
21169;DHT22;10742;51.816;8.662;2023-01-10T11:12:46;11.70;94.80
21169;DHT22;10742;51.816;8.662;2023-01-10T11:15:49;11.80;94.90
21169;DHT22;10742;51.816;8.662;2023-01-10T11:19:16;11.80;94.80
21169;DHT22;10742;51.816;8.662;2023-01-10T11:22:19;11.80;94.40
21169;DHT22;10742;51.816;8.662;2023-01-10T11:25:22;11.90;94.50
21169;DHT22;10742;51.816;8.662;2023-01-10T11:28:29;11.90;94.40
21169;DHT22;10742;51.816;8.662;2023-01-10T11:31:32;11.90;94.20
21169;DHT22;10742;51.816;8.662;2023-01-10T11:34:35;11.90;94.20
21169;DHT22;10742;51.816;8.662;2023-01-10T11:37:38;11.90;94.10
21169;DHT22;10742;51.816;8.662;2023-01-10T11:40:53;11.90;94.10
21169;DHT22;10742;51.816;8.662;2023-01-10T11:47:19;11.80;93.70
21169;DHT22;10742;51.816;8.662;2023-01-10T11:50:40;11.80;94.00
21169;DHT22;10742;51.816;8.662;2023-01-10T11:53:43;11.90;93.90
21169;DHT22;10742;51.816;8.662;2023-01-10T12:00:06;11.90;93.90
21169;DHT22;10742;51.816;8.662;2023-01-10T12:06:26;12.00;93.90
21169;DHT22;10742;51.816;8.662;2023-01-10T12:12:55;12.10;93.80
21169;DHT22;10742;51.816;8.662;2023-01-10T12:16:15;12.10;93.70
21169;DHT22;10742;51.816;8.662;2023-01-10T12:19:18;12.20;93.60
21169;DHT22;10742;51.816;8.662;2023-01-10T12:22:34;12.20;93.80
21169;DHT22;10742;51.816;8.662;2023-01-10T12:25:42;12.20;93.60
21169;DHT22;10742;51.816;8.662;2023-01-10T12:28:50;12.30;93.50
21169;DHT22;10742;51.816;8.662;2023-01-10T12:31:54;12.30;93.40
21169;DHT22;10742;51.816;8.662;2023-01-10T12:35:04;12.40;93.40
21169;DHT22;10742;51.816;8.662;2023-01-10T12:38:25;12.30;93.30
21169;DHT22;10742;51.816;8.662;2023-01-10T12:45:28;12.40;93.10
21169;DHT22;10742;51.816;8.662;2023-01-10T12:48:42;12.40;92.80
21169;DHT22;10742;51.816;8.662;2023-01-10T12:51:48;12.40;92.80
21169;DHT22;10742;51.816;8.662;2023-01-10T12:54:53;12.30;92.90
21169;DHT22;10742;51.816;8.662;2023-01-10T12:57:58;12.30;92.90
21169;DHT22;10742;51.816;8.662;2023-01-10T13:01:02;12.30;92.80
21169;DHT22;10742;51.816;8.662;2023-01-10T13:04:11;12.30;92.80
21169;DHT22;10742;51.816;8.662;2023-01-10T13:07:16;12.30;92.70
21169;DHT22;10742;51.816;8.662;2023-01-10T13:10:21;12.30;92.70
21169;DHT22;10742;51.816;8.662;2023-01-10T13:19:36;12.30;92.40
21169;DHT22;10742;51.816;8.662;2023-01-10T13:22:39;12.30;92.50
21169;DHT22;10742;51.816;8.662;2023-01-10T13:25:53;12.30;92.40
21169;DHT22;10742;51.816;8.662;2023-01-10T13:28:58;12.20;92.00
21169;DHT22;10742;51.816;8.662;2023-01-10T13:32:01;12.20;92.20
21169;DHT22;10742;51.816;8.662;2023-01-10T13:35:18;12.20;92.40
21169;DHT22;10742;51.816;8.662;2023-01-10T13:38:32;12.20;92.30
21169;DHT22;10742;51.816;8.662;2023-01-10T13:45:27;12.20;92.10
21169;DHT22;10742;51.816;8.662;2023-01-10T13:48:30;12.20;92.30
21169;DHT22;10742;51.816;8.662;2023-01-10T13:51:33;12.20;92.40
21169;DHT22;10742;51.816;8.662;2023-01-10T13:54:37;12.20;92.40
21169;DHT22;10742;51.816;8.662;2023-01-10T13:57:51;12.20;92.30
21169;DHT22;10742;51.816;8.662;2023-01-10T14:00:58;12.20;92.00
21169;DHT22;10742;51.816;8.662;2023-01-10T14:05:14;12.20;92.10
21169;DHT22;10742;51.816;8.662;2023-01-10T14:07:58;12.20;91.90
21169;DHT22;10742;51.816;8.662;2023-01-10T14:11:10;12.20;92.10
21169;DHT22;10742;51.816;8.662;2023-01-10T14:14:32;12.20;91.90
21169;DHT22;10742;51.816;8.662;2023-01-10T14:17:36;12.20;91.80
21169;DHT22;10742;51.816;8.662;2023-01-10T14:20:40;12.20;92.00
21169;DHT22;10742;51.816;8.662;2023-01-10T14:23:48;12.10;91.90
21169;DHT22;10742;51.816;8.662;2023-01-10T14:26:54;12.10;91.80
21169;DHT22;10742;51.816;8.662;2023-01-10T14:29:59;12.10;91.90
21169;DHT22;10742;51.816;8.662;2023-01-10T14:33:15;12.00;91.90
21169;DHT22;10742;51.816;8.662;2023-01-10T14:36:30;12.00;91.60
21169;DHT22;10742;51.816;8.662;2023-01-10T14:39:34;12.00;91.60
21169;DHT22;10742;51.816;8.662;2023-01-10T14:42:36;12.00;91.90
21169;DHT22;10742;51.816;8.662;2023-01-10T14:48:55;12.00;91.70
21169;DHT22;10742;51.816;8.662;2023-01-10T14:52:12;12.00;91.80
21169;DHT22;10742;51.816;8.662;2023-01-10T14:55:16;11.90;91.60
21169;DHT22;10742;51.816;8.662;2023-01-10T14:58:19;11.90;91.70
21169;DHT22;10742;51.816;8.662;2023-01-10T15:01:26;11.90;91.80
21169;DHT22;10742;51.816;8.662;2023-01-10T15:04:31;11.90;91.70
21169;DHT22;10742;51.816;8.662;2023-01-10T15:07:35;11.90;91.70
21169;DHT22;10742;51.816;8.662;2023-01-10T15:10:41;11.80;91.70
21169;DHT22;10742;51.816;8.662;2023-01-10T15:13:50;11.80;91.70
21169;DHT22;10742;51.816;8.662;2023-01-10T15:16:58;11.80;91.60
21169;DHT22;10742;51.816;8.662;2023-01-10T15:20:08;11.80;91.80
21169;DHT22;10742;51.816;8.662;2023-01-10T15:23:15;11.80;91.90
21169;DHT22;10742;51.816;8.662;2023-01-10T15:26:36;11.80;92.00
21169;DHT22;10742;51.816;8.662;2023-01-10T15:29:39;11.70;91.70
21169;DHT22;10742;51.816;8.662;2023-01-10T15:32:49;11.70;91.80
21169;DHT22;10742;51.816;8.662;2023-01-10T15:35:52;11.70;91.70
21169;DHT22;10742;51.816;8.662;2023-01-10T15:38:55;11.70;91.70
21169;DHT22;10742;51.816;8.662;2023-01-10T15:42:05;11.70;91.60
21169;DHT22;10742;51.816;8.662;2023-01-10T15:45:36;11.70;91.50
21169;DHT22;10742;51.816;8.662;2023-01-10T15:48:41;11.60;91.30
21169;DHT22;10742;51.816;8.662;2023-01-10T15:51:46;11.60;91.60
21169;DHT22;10742;51.816;8.662;2023-01-10T15:54:49;11.60;91.60
21169;DHT22;10742;51.816;8.662;2023-01-10T15:57:51;11.60;91.50
21169;DHT22;10742;51.816;8.662;2023-01-10T16:00:55;11.50;91.50
21169;DHT22;10742;51.816;8.662;2023-01-10T16:04:01;11.50;91.40
21169;DHT22;10742;51.816;8.662;2023-01-10T16:10:28;11.50;91.20
21169;DHT22;10742;51.816;8.662;2023-01-10T16:13:31;11.50;91.50
21169;DHT22;10742;51.816;8.662;2023-01-10T16:16:35;11.40;91.40
21169;DHT22;10742;51.816;8.662;2023-01-10T16:19:38;11.40;91.40
21169;DHT22;10742;51.816;8.662;2023-01-10T16:22:41;11.40;91.40
21169;DHT22;10742;51.816;8.662;2023-01-10T16:25:49;11.40;91.40
21169;DHT22;10742;51.816;8.662;2023-01-10T16:28:52;11.30;91.30
21169;DHT22;10742;51.816;8.662;2023-01-10T16:31:54;11.30;91.40
21169;DHT22;10742;51.816;8.662;2023-01-10T16:34:57;11.30;91.40
21169;DHT22;10742;51.816;8.662;2023-01-10T16:38:02;11.30;91.40
21169;DHT22;10742;51.816;8.662;2023-01-10T16:41:09;11.30;91.30
21169;DHT22;10742;51.816;8.662;2023-01-10T16:44:31;11.30;91.20
21169;DHT22;10742;51.816;8.662;2023-01-10T16:47:34;11.30;91.30
21169;DHT22;10742;51.816;8.662;2023-01-10T16:50:38;11.30;91.30
21169;DHT22;10742;51.816;8.662;2023-01-10T16:53:41;11.30;91.30
21169;DHT22;10742;51.816;8.662;2023-01-10T16:56:43;11.20;91.20
21169;DHT22;10742;51.816;8.662;2023-01-10T16:59:46;11.20;91.30
21169;DHT22;10742;51.816;8.662;2023-01-10T17:02:49;11.20;91.20
21169;DHT22;10742;51.816;8.662;2023-01-10T17:05:52;11.20;91.20
21169;DHT22;10742;51.816;8.662;2023-01-10T17:08:55;11.20;91.20
21169;DHT22;10742;51.816;8.662;2023-01-10T17:12:02;11.20;91.20
21169;DHT22;10742;51.816;8.662;2023-01-10T17:15:06;11.20;91.10
21169;DHT22;10742;51.816;8.662;2023-01-10T17:18:13;11.20;91.20
21169;DHT22;10742;51.816;8.662;2023-01-10T17:21:18;11.20;91.20
21169;DHT22;10742;51.816;8.662;2023-01-10T17:24:41;11.20;91.10
21169;DHT22;10742;51.816;8.662;2023-01-10T17:28:02;11.20;91.20
21169;DHT22;10742;51.816;8.662;2023-01-10T17:31:23;11.20;91.20
21169;DHT22;10742;51.816;8.662;2023-01-10T17:34:44;11.20;91.20
21169;DHT22;10742;51.816;8.662;2023-01-10T17:38:08;11.20;91.10
21169;DHT22;10742;51.816;8.662;2023-01-10T17:41:31;11.20;91.10
21169;DHT22;10742;51.816;8.662;2023-01-10T17:44:52;11.20;91.10
21169;DHT22;10742;51.816;8.662;2023-01-10T17:48:20;11.20;91.10
21169;DHT22;10742;51.816;8.662;2023-01-10T17:51:41;11.20;91.10
21169;DHT22;10742;51.816;8.662;2023-01-10T17:54:44;11.20;91.10
21169;DHT22;10742;51.816;8.662;2023-01-10T17:57:46;11.20;91.10
21169;DHT22;10742;51.816;8.662;2023-01-10T18:00:49;11.20;91.10
21169;DHT22;10742;51.816;8.662;2023-01-10T18:03:53;11.20;91.10
21169;DHT22;10742;51.816;8.662;2023-01-10T18:06:55;11.20;91.10
21169;DHT22;10742;51.816;8.662;2023-01-10T18:09:57;11.20;91.10
21169;DHT22;10742;51.816;8.662;2023-01-10T18:13:00;11.20;91.10
21169;DHT22;10742;51.816;8.662;2023-01-10T18:16:05;11.20;91.10
21169;DHT22;10742;51.816;8.662;2023-01-10T18:19:08;11.20;91.00
21169;DHT22;10742;51.816;8.662;2023-01-10T18:22:11;11.20;91.00
21169;DHT22;10742;51.816;8.662;2023-01-10T18:25:32;11.30;91.00
21169;DHT22;10742;51.816;8.662;2023-01-10T18:28:37;11.30;91.10
21169;DHT22;10742;51.816;8.662;2023-01-10T18:31:44;11.30;91.00
21169;DHT22;10742;51.816;8.662;2023-01-10T18:34:47;11.30;91.00
21169;DHT22;10742;51.816;8.662;2023-01-10T18:37:50;11.30;91.00
21169;DHT22;10742;51.816;8.662;2023-01-10T18:40:52;11.30;91.00
21169;DHT22;10742;51.816;8.662;2023-01-10T18:43:55;11.20;91.00
21169;DHT22;10742;51.816;8.662;2023-01-10T18:46:58;11.30;91.40
21169;DHT22;10742;51.816;8.662;2023-01-10T18:50:01;11.20;91.00
21169;DHT22;10742;51.816;8.662;2023-01-10T18:53:04;11.30;91.10
21169;DHT22;10742;51.816;8.662;2023-01-10T18:56:07;11.30;91.10
21169;DHT22;10742;51.816;8.662;2023-01-10T18:59:10;11.30;91.20
21169;DHT22;10742;51.816;8.662;2023-01-10T19:02:13;11.30;91.30
21169;DHT22;10742;51.816;8.662;2023-01-10T19:05:16;11.30;91.40
21169;DHT22;10742;51.816;8.662;2023-01-10T19:08:19;11.30;91.50
21169;DHT22;10742;51.816;8.662;2023-01-10T19:11:22;11.30;91.60
21169;DHT22;10742;51.816;8.662;2023-01-10T19:14:24;11.30;91.60
21169;DHT22;10742;51.816;8.662;2023-01-10T19:17:28;11.30;91.70
21169;DHT22;10742;51.816;8.662;2023-01-10T19:20:30;11.30;91.80
21169;DHT22;10742;51.816;8.662;2023-01-10T19:23:33;11.30;91.90
21169;DHT22;10742;51.816;8.662;2023-01-10T19:26:36;11.30;91.90
21169;DHT22;10742;51.816;8.662;2023-01-10T19:29:40;11.20;91.90
21169;DHT22;10742;51.816;8.662;2023-01-10T19:32:47;11.20;92.00
21169;DHT22;10742;51.816;8.662;2023-01-10T19:35:50;11.20;92.00
21169;DHT22;10742;51.816;8.662;2023-01-10T19:38:55;11.20;92.20
21169;DHT22;10742;51.816;8.662;2023-01-10T19:41:58;11.10;92.20
21169;DHT22;10742;51.816;8.662;2023-01-10T19:45:02;11.10;92.40
21169;DHT22;10742;51.816;8.662;2023-01-10T19:48:04;11.10;92.40
21169;DHT22;10742;51.816;8.662;2023-01-10T19:51:10;11.00;92.50
21169;DHT22;10742;51.816;8.662;2023-01-10T19:54:13;11.10;92.60
21169;DHT22;10742;51.816;8.662;2023-01-10T19:57:17;11.00;93.00
21169;DHT22;10742;51.816;8.662;2023-01-10T20:00:19;11.00;92.70
21169;DHT22;10742;51.816;8.662;2023-01-10T20:03:23;11.00;92.80
21169;DHT22;10742;51.816;8.662;2023-01-10T20:06:27;11.00;92.80
21169;DHT22;10742;51.816;8.662;2023-01-10T20:09:30;11.00;92.90
21169;DHT22;10742;51.816;8.662;2023-01-10T20:12:35;11.00;93.00
21169;DHT22;10742;51.816;8.662;2023-01-10T20:15:38;10.90;93.00
21169;DHT22;10742;51.816;8.662;2023-01-10T20:18:41;10.90;93.00
21169;DHT22;10742;51.816;8.662;2023-01-10T20:21:44;10.90;93.10
21169;DHT22;10742;51.816;8.662;2023-01-10T20:24:48;10.90;93.30
21169;DHT22;10742;51.816;8.662;2023-01-10T20:27:51;10.90;93.30
21169;DHT22;10742;51.816;8.662;2023-01-10T20:30:54;10.80;93.30
21169;DHT22;10742;51.816;8.662;2023-01-10T20:33:58;10.80;93.40
21169;DHT22;10742;51.816;8.662;2023-01-10T20:37:01;10.80;93.50
21169;DHT22;10742;51.816;8.662;2023-01-10T20:40:04;10.80;93.60
21169;DHT22;10742;51.816;8.662;2023-01-10T20:43:07;10.70;93.60
21169;DHT22;10742;51.816;8.662;2023-01-10T20:46:13;10.70;93.60
21169;DHT22;10742;51.816;8.662;2023-01-10T20:49:16;10.70;93.70
21169;DHT22;10742;51.816;8.662;2023-01-10T20:52:20;10.70;93.70
21169;DHT22;10742;51.816;8.662;2023-01-10T20:55:23;10.70;93.80
21169;DHT22;10742;51.816;8.662;2023-01-10T20:58:30;10.70;93.90
21169;DHT22;10742;51.816;8.662;2023-01-10T21:01:37;10.60;94.00
21169;DHT22;10742;51.816;8.662;2023-01-10T21:04:40;10.60;93.90
21169;DHT22;10742;51.816;8.662;2023-01-10T21:07:43;10.60;94.00
21169;DHT22;10742;51.816;8.662;2023-01-10T21:10:47;10.70;94.00
21169;DHT22;10742;51.816;8.662;2023-01-10T21:13:50;10.70;94.00
21169;DHT22;10742;51.816;8.662;2023-01-10T21:16:52;10.70;94.00
21169;DHT22;10742;51.816;8.662;2023-01-10T21:19:55;10.70;94.00